• Join FlightAware (Why Join?)
  • Login
  • US Flag 
04:52AM EDT


 

Airport Tracker/Info


-or-


 

Live Flight TrackerFlight Track Log ✈ QFA791 ✈ 27-Jul-2013 ✈ YBAS / ASP - YSSY / SYD

Flight Track Log - Related Links

Times and Time Zones

All times are in EDT time to prevent confusion due to time zone crossing. See the QFA791 flight status page for this flight to view local times or setup timezone preferences in your user account.

Time Position Orientation Groundspeed Altitude Reporting Facility
EDT Latitude Longitude Course Direction KTS MPH feet Rate Location/Type
11:50PM -23.8040 133.9020 154° Southeast 16 18  Level FlightAware
11:50PM -23.8050 133.9040 119° Southeast 24 28 480 Level FlightAware
11:51PM -23.8060 133.9030 222° Southwest 27 31 600 Level FlightAware
11:51PM -23.8070 133.9040 138° Southeast 31 36 660 Level FlightAware
11:52PM -23.8080 133.9060 119° Southeast 20 23 720 Level FlightAware
11:52PM -23.8090 133.9090 110° East 22 25 840 Level FlightAware
11:53PM -23.8110 133.9110 138° Southeast 24 28 960 Level FlightAware
11:53PM -23.8110 133.9130 90° East 17 20 1,140 Level FlightAware
11:53PM -23.8120 133.9140 138° Southeast 30 35 1,260 Level FlightAware
11:55PM -23.8110 133.9110 290° West 64 74 1,380 Level FlightAware
11:55PM -23.8020 133.8960 303° West 3,240 Level FlightAware
11:55PM -23.7920 133.8760 299° West 158 182 3,000 4,620 Climbing FlightAware
11:56PM -23.7850 133.8580 293° West 174 200 3,800 2,400 Climbing FlightAware
11:56PM -23.7940 133.8280 252° West 188 216 5,500 2,880 Climbing FlightAware
11:57PM -23.8080 133.8180 213° Southwest 187 215 6,500 2,700 Climbing FlightAware
11:57PM -23.8220 133.8150 191° South 202 232 7,000 1,560 Climbing FlightAware
11:57PM -23.8280 133.8150 180° South 212 244 7,100 1,500 Climbing FlightAware
11:58PM -23.8620 133.8300 158° South 253 291 8,000 1,680 Climbing FlightAware
11:58PM -23.8720 133.8420 132° Southeast 264 304 8,400 2,100 Climbing FlightAware
11:58PM -23.8770 133.8520 119° Southeast 274 315 8,700 1,800 Climbing FlightAware
11:58PM -23.8800 133.8650 104° East 281 323 9,000 1,980 Climbing FlightAware
11:59PM -23.8910 133.9300 100° East 317 365 10,500 2,160 Climbing FlightAware
12:00AM -23.9040 134.0000 101° East 347 399 12,100 2,460 Climbing FlightAware
12:00AM -23.9370 134.0690 118° Southeast 368 423 14,100 2,400 Climbing FlightAware
12:01AM -23.9840 134.1300 130° Southeast 394 453 15,500 1,860 Climbing FlightAware
12:02AM -24.0390 134.2020 130° Southeast 426 490 16,800 1,800 Climbing FlightAware
12:02AM -24.0900 134.2690 130° Southeast 445 512 18,100 2,040 Climbing FlightAware
12:03AM -24.1370 134.3320 129° Southeast 454 522 19,400 2,160 Climbing FlightAware
12:04AM -24.1930 134.4070 129° Southeast 459 528 20,900 2,040 Climbing FlightAware
12:04AM -24.2510 134.4830 130° Southeast 468 539 22,300 1,800 Climbing FlightAware
12:05AM -24.2960 134.5440 129° Southeast 478 550 23,200 1,740 Climbing FlightAware
12:06AM -24.3640 134.6330 130° Southeast 484 557 24,600 1,800 Climbing FlightAware
12:06AM -24.4210 134.7090 129° Southeast 491 565 25,800 1,560 Climbing FlightAware
12:07AM -24.4820 134.7910 129° Southeast 497 572 26,800 1,260 Climbing FlightAware
12:08AM -24.5440 134.8750 129° Southeast 510 587 27,600 1,080 Climbing FlightAware
12:08AM -24.6030 134.9540 129° Southeast 520 598 28,300 1,200 Climbing FlightAware
12:09AM -24.6750 135.0500 130° Southeast 528 608 29,300 1,200 Climbing FlightAware
12:10AM -24.7320 135.1260 130° Southeast 532 612 30,000 1,260 Climbing FlightAware
12:10AM -24.7840 135.1970 129° Southeast 530 610 30,900 1,380 Climbing FlightAware
12:11AM -24.8560 135.2940 129° Southeast 531 611 31,900 1,320 Climbing FlightAware
12:12AM -24.9200 135.3800 129° Southeast 531 611 32,800 1,260 Climbing FlightAware
12:12AM -24.9760 135.4560 129° Southeast 528 608 33,600 1,200 Climbing FlightAware
12:13AM -25.0430 135.5470 129° Southeast 526 605 34,500 1,260 Climbing FlightAware
12:14AM -25.1050 135.6310 129° Southeast 522 601 35,400 1,260 Climbing FlightAware
12:15AM -25.1680 135.7180 129° Southeast 516 594 36,300 1,140 Climbing FlightAware
12:15AM -25.2310 135.8030 129° Southeast 515 593 37,000 480 Climbing FlightAware
12:16AM -25.2940 135.8900 129° Southeast 517 595 37,000  Level FlightAware
12:17AM -25.3550 135.9740 129° Southeast 518 596 37,000  Level FlightAware
12:17AM -25.4190 136.0620 129° Southeast 519 597 37,000  Level FlightAware
12:18AM -25.4830 136.1490 129° Southeast 519 597 37,000  Level FlightAware
12:19AM -25.5470 136.2370 129° Southeast 519 597 37,000  Level FlightAware
12:19AM -25.6000 136.3110 128° Southeast 519 597 37,000  Level FlightAware
12:20AM -25.6750 136.4150 129° Southeast 518 596 37,000  Level FlightAware
12:21AM -25.7300 136.4920 128° Southeast 518 596 37,000  Level FlightAware
12:22AM -25.7970 136.5840 129° Southeast 519 597 37,000  Level FlightAware
12:23AM -25.8620 136.6770 128° Southeast 519 597 37,000  Level FlightAware
12:23AM -25.9570 136.8030 130° Southeast 519 597 37,000  Level FlightAware
12:24AM -26.0230 136.8950 129° Southeast 520 598 37,000  Level FlightAware
12:25AM -26.0780 136.9740 128° Southeast 520 598 37,000  Level FlightAware
12:25AM -26.1400 137.0610 128° Southeast 520 598 37,000  Level FlightAware
12:26AM -26.2000 137.1470 128° Southeast 520 598 37,000  Level FlightAware
12:27AM -26.2460 137.2120 128° Southeast 520 598 37,000  Level FlightAware
12:28AM -26.3070 137.3000 128° Southeast 520 598 37,000  Level FlightAware
12:29AM -26.3680 137.3860 128° Southeast 520 598 37,000  Level FlightAware
12:29AM -26.4130 137.4510 128° Southeast 520 598 37,000  Level FlightAware
12:30AM -26.4890 137.5590 128° Southeast 520 598 37,000  Level FlightAware
12:31AM -26.5340 137.6240 128° Southeast 520 598 37,000  Level FlightAware
12:32AM -26.5960 137.7120 128° Southeast 520 598 37,000  Level FlightAware
12:32AM -26.6410 137.7770 128° Southeast 520 598 37,000  Level FlightAware
12:33AM -26.7170 137.8850 128° Southeast 520 598 37,000  Level FlightAware
12:34AM -26.7810 137.9770 128° Southeast 520 598 37,000  Level FlightAware
12:35AM -26.8260 138.0420 128° Southeast 520 598 37,000  Level FlightAware
12:35AM -26.8730 138.1090 128° Southeast 520 598 37,000  Level FlightAware
12:36AM -26.9500 138.2200 128° Southeast 520 598 37,000  Level FlightAware
12:37AM -26.9950 138.2850 128° Southeast 520 598 37,000  Level FlightAware
12:38AM -27.0550 138.3710 128° Southeast 520 598 37,000  Level FlightAware
12:38AM -27.1010 138.4370 128° Southeast 520 598 37,000  Level FlightAware
12:39AM -27.1620 138.5250 128° Southeast 520 598 37,000  Level FlightAware
12:40AM -27.2080 138.5910 128° Southeast 520 598 37,000  Level FlightAware
12:42AM -27.3422 138.8073 125° Southeast  Level Estimated
12:43AM -27.4133 138.9223 125° Southeast  Level Estimated
12:44AM -27.4844 139.0375 125° Southeast  Level Estimated
12:45AM -27.5553 139.1528 125° Southeast  Level Estimated
12:46AM -27.6261 139.2683 125° Southeast  Level Estimated
12:47AM -27.6969 139.3839 125° Southeast  Level Estimated
12:48AM -27.7675 139.4997 125° Southeast  Level Estimated
12:49AM -27.8381 139.6156 125° Southeast  Level Estimated
12:49AM -28.2610 140.1430 125° Southeast 525 604 37,000  Level FlightAware
12:50AM -28.3090 140.2170 126° Southeast 525 604 37,000  Level FlightAware
12:51AM -28.3940 140.3430 128° Southeast 528 608 37,000  Level FlightAware
12:51AM -28.4530 140.4320 127° Southeast 530 610 37,000  Level FlightAware
12:52AM -28.5110 140.5200 127° Southeast 530 610 37,000  Level FlightAware
12:53AM -28.5800 140.6250 127° Southeast 531 611 37,000  Level FlightAware
12:53AM -28.6380 140.7140 127° Southeast 531 611 37,000  Level FlightAware
12:54AM -28.6910 140.7940 127° Southeast 531 611 37,000  Level FlightAware
12:55AM -28.7440 140.8760 126° Southeast 531 611 37,000  Level FlightAware
12:55AM -28.8110 140.9780 127° Southeast 529 609 37,000  Level FlightAware
12:56AM -28.8770 141.0790 127° Southeast 528 608 37,000  Level FlightAware
12:57AM -28.9480 141.1900 126° Southeast 527 606 37,000  Level FlightAware
12:58AM -28.9940 141.2610 127° Southeast 527 606 37,000  Level FlightAware
12:58AM -29.0680 141.3740 127° Southeast 524 603 37,000  Level FlightAware
12:59AM -29.1290 141.4690 126° Southeast 523 602 37,000  Level FlightAware
01:00AM -29.1850 141.5560 126° Southeast 523 602 37,000  Level FlightAware
01:00AM -29.2290 141.6250 126° Southeast 523 602 37,000  Level FlightAware
01:01AM -29.2870 141.7160 126° Southeast 523 602 37,000  Level FlightAware
01:02AM -29.3310 141.7870 125° Southeast 523 602 37,000  Level FlightAware
01:03AM -29.3890 141.8790 126° Southeast 523 602 37,000  Level FlightAware
01:03AM -29.4330 141.9470 127° Southeast 523 602 37,000  Level FlightAware
01:04AM -29.5480 142.1260 126° Southeast 526 605 37,000  Level FlightAware
01:05AM -29.6040 142.2140 126° Southeast 526 605 37,000  Level FlightAware
01:05AM -29.6530 142.2940 125° Southeast 526 605 37,000  Level FlightAware
01:06AM -29.7100 142.3870 125° Southeast 526 605 37,000  Level FlightAware
01:07AM -29.7530 142.4580 125° Southeast 526 605 37,000  Level FlightAware
01:07AM -29.8110 142.5530 125° Southeast 526 605 37,000  Level FlightAware
01:08AM -29.8540 142.6240 125° Southeast 526 605 37,000  Level FlightAware
01:09AM -29.8980 142.6960 125° Southeast 526 605 37,000  Level FlightAware
01:09AM -29.9550 142.7900 125° Southeast 526 605 37,000  Level FlightAware
01:10AM -29.9970 142.8600 125° Southeast 526 605 37,000  Level FlightAware
01:11AM -30.0410 142.9330 125° Southeast 526 605 37,000  Level FlightAware
01:11AM -30.0840 143.0030 125° Southeast 526 605 37,000  Level FlightAware
01:12AM -30.1390 143.0930 125° Southeast 526 605 37,000  Level FlightAware
01:13AM -30.1820 143.1660 124° Southeast 526 605 37,000  Level FlightAware
01:13AM -30.2390 143.2600 125° Southeast 526 605 37,000  Level FlightAware
01:14AM -30.2970 143.3560 125° Southeast 526 605 37,000  Level FlightAware
01:17AM -30.4394 143.6327 121° Southeast  Level Estimated
01:18AM -30.5030 143.7569 121° Southeast  Level Estimated
01:19AM -30.5665 143.8812 121° Southeast  Level Estimated
01:20AM -30.6298 144.0057 121° Southeast  Level Estimated
01:21AM -30.6931 144.1303 121° Southeast  Level Estimated
01:22AM -30.7562 144.2551 120° Southeast  Level Estimated
01:23AM -30.8192 144.3801 120° Southeast  Level Estimated
01:24AM -30.8820 144.5052 120° Southeast  Level Estimated
01:25AM -30.9448 144.6305 120° Southeast  Level Estimated
01:26AM -31.0074 144.7560 120° Southeast  Level Estimated
01:27AM -31.0699 144.8816 120° Southeast  Level Estimated
01:28AM -31.1323 145.0074 120° Southeast  Level Estimated
01:28AM -31.5610 145.4370 120° Southeast 516 594 37,000  Level FlightAware
01:29AM -31.5930 145.4930 124° Southeast 515 593 37,000  Level FlightAware
01:29AM -31.6490 145.5890 124° Southeast 514 592 37,000  Level FlightAware
01:30AM -31.7090 145.6920 124° Southeast 513 590 37,000  Level FlightAware
01:31AM -31.7630 145.7850 124° Southeast 512 589 37,000  Level FlightAware
01:31AM -31.8210 145.8860 124° Southeast 505 581 37,000  Level FlightAware
01:32AM -31.8800 145.9900 124° Southeast 505 581 37,000  Level FlightAware
01:33AM -31.9260 146.0710 124° Southeast 505 581 37,000  Level FlightAware
01:33AM -31.9790 146.1630 124° Southeast 505 581 37,000  Level FlightAware
01:34AM -32.0320 146.2560 124° Southeast 505 581 37,000  Level FlightAware
01:35AM -32.0840 146.3480 124° Southeast 505 581 37,000  Level FlightAware
01:35AM -32.1310 146.4300 124° Southeast 505 581 37,000  Level FlightAware
01:36AM -32.1890 146.5320 124° Southeast 504 580 37,000  Level FlightAware
01:37AM -32.2420 146.6260 124° Southeast 504 580 37,000  Level FlightAware
01:37AM -32.2870 146.7060 124° Southeast 503 579 37,000  Level FlightAware
01:38AM -32.3440 146.8080 124° Southeast 502 578 37,000  Level FlightAware
01:39AM -32.3960 146.9010 124° Southeast 502 578 37,000  Level FlightAware
01:40AM -32.4550 147.0050 124° Southeast 501 577 37,000  Level FlightAware
01:40AM -32.5070 147.0990 123° Southeast 505 581 37,000  Level FlightAware
01:41AM -32.5640 147.2020 123° Southeast 504 580 37,000  Level FlightAware
01:42AM -32.6150 147.2950 123° Southeast 502 578 37,000  Level FlightAware
01:42AM -32.6660 147.3860 124° Southeast 502 578 37,000  Level FlightAware
01:43AM -32.7160 147.4770 123° Southeast 502 578 37,000  Level FlightAware
01:44AM -32.7620 147.5590 124° Southeast 502 578 37,000  Level FlightAware
01:44AM -32.8130 147.6520 123° Southeast 502 578 37,000  Level FlightAware
01:45AM -32.8640 147.7460 123° Southeast 504 580 37,000  Level FlightAware
01:46AM -32.9210 147.8500 123° Southeast 504 580 37,000  Level FlightAware
01:46AM -32.9590 147.9210 123° Southeast 505 581 37,000  Level FlightAware
01:47AM -33.0160 148.0260 123° Southeast 505 581 37,000  Level FlightAware
01:48AM -33.0680 148.1210 123° Southeast 505 581 37,000  Level FlightAware
01:48AM -33.1270 148.2210 125° Southeast 491 565 37,000  Level FlightAware
01:49AM -33.1920 148.2880 139° Southeast 458 527 37,000  Level FlightAware
01:50AM -33.2630 148.3470 145° Southeast 453 521 37,000  Level FlightAware
01:50AM -33.3380 148.4090 145° Southeast 434 499 37,000  Level FlightAware
01:51AM -33.3980 148.4590 145° Southeast 432 497 37,000  Level FlightAware
01:52AM -33.4630 148.5130 145° Southeast 437 503 37,000  Level FlightAware
01:52AM -33.5300 148.5690 145° Southeast 437 503 37,000  Level FlightAware
01:53AM -33.6040 148.6320 145° Southeast 437 503 37,000  Level FlightAware
01:54AM -33.6460 148.6680 144° Southeast 437 503 37,000  Level FlightAware
01:54AM -33.7200 148.7290 146° Southeast 437 503 37,000  Level FlightAware
01:55AM -33.7870 148.7860 145° Southeast 432 497 37,000  Level FlightAware
01:56AM -33.8610 148.8490 145° Southeast 434 499 37,000  Level FlightAware
01:56AM -33.9280 148.9050 145° Southeast 436 502 37,000  Level FlightAware
01:57AM -33.9960 148.9630 145° Southeast 438 504 37,000  Level FlightAware
01:58AM -34.0690 149.0260 144° Southeast 436 502 37,000 -660 Level FlightAware
01:58AM -34.1380 149.0840 145° Southeast 435 501 36,100 -1,800 Descending FlightAware
01:59AM -34.2110 149.1450 145° Southeast 428 493 34,500 -2,100 Descending FlightAware
02:00AM -34.2690 149.1930 146° Southeast 419 482 33,300 -1,980 Descending FlightAware
02:01AM -34.3430 149.2460 149° Southeast 400 460 31,900 -1,860 Descending FlightAware
02:01AM -34.4110 149.3030 145° Southeast 399 459 30,600 -1,680 Descending FlightAware
02:02AM -34.4770 149.3660 142° Southeast 380 437 29,400 -1,380 Descending FlightAware
02:02AM -34.4980 149.4140 118° Southeast 395 455 29,000 -1,440 Descending FlightAware
02:03AM -34.5010 149.5050 92° East 397 457 27,800 -1,740 Descending FlightAware
02:04AM -34.5020 149.5930 91° East 390 449 26,700 -1,740 Descending FlightAware
02:05AM -34.5020 149.6900 90° East 384 442 25,400 -1,800 Descending FlightAware
02:05AM -34.5020 149.7630 90° East 379 436 24,400 -1,680 Descending FlightAware
02:06AM -34.5020 149.8680 90° East 371 427 23,100 -1,620 Descending FlightAware
02:07AM -34.4930 149.9500 82° East 363 418 22,000 -1,680 Descending FlightAware
02:07AM -34.4670 150.0130 63° Northeast 354 407 21,000 -1,620 Descending FlightAware
02:08AM -34.4360 150.0830 62° Northeast 353 406 20,000 -1,620 Descending FlightAware
02:09AM -34.4010 150.1610 61° Northeast 348 400 18,800 -1,620 Descending FlightAware
02:09AM -34.3750 150.2190 62° Northeast 342 394 17,900 -1,500 Descending FlightAware
02:10AM -34.3420 150.2940 62° Northeast 332 382 16,800 -1,500 Descending FlightAware
02:11AM -34.3110 150.3620 61° Northeast 330 380 15,800 -1,500 Descending FlightAware
02:11AM -34.2870 150.4160 62° Northeast 326 375 15,000 -1,440 Descending FlightAware
02:12AM -34.2510 150.4970 62° Northeast 316 364 13,800 -1,380 Descending FlightAware
02:13AM -34.2250 150.5550 62° Northeast 309 356 13,000 -1,260 Descending FlightAware
02:13AM -34.1980 150.6160 62° Northeast 300 345 12,200 -1,380 Descending FlightAware
02:14AM -34.1750 150.6670 61° Northeast 295 339 11,300 -1,680 Descending FlightAware
02:15AM -34.1440 150.7340 61° Northeast 299 344 10,000 -1,680 Descending FlightAware
02:15AM -34.1250 150.7780 62° Northeast 300 345 9,200 -1,560 Descending FlightAware
02:16AM -34.1080 150.8150 61° Northeast 294 338 8,600 -1,200 Descending FlightAware
02:16AM -34.0920 150.8500 61° Northeast 284 327 8,200 -1,020 Descending FlightAware
02:17AM -34.0730 150.8930 62° Northeast 281 323 7,700 -960 Descending FlightAware
02:17AM -34.0640 150.9130 61° Northeast 282 325 7,500 -840 Descending FlightAware
02:17AM -34.0450 150.9550 61° Northeast 284 327 7,100 -900 Descending FlightAware
02:17AM -34.0410 150.9690 71° East 284 327 6,900 -900 Descending FlightAware
02:18AM -34.0520 151.0140 106° East 286 329 6,500 -780 Descending FlightAware
02:18AM -34.0630 151.0260 138° Southeast 281 323 6,300 -1,080 Descending FlightAware
02:19AM -34.0890 151.0470 146° Southeast 278 320 5,900 -1,080 Descending FlightAware
02:19AM -34.1230 151.0730 148° Southeast 275 316 5,300 -1,320 Descending FlightAware
02:20AM -34.1580 151.1000 147° Southeast 274 315 4,500 -1,500 Descending FlightAware
02:20AM -34.1810 151.1180 147° Southeast 275 316 4,000 -1,080 Descending FlightAware
02:21AM -34.2100 151.1570 132° Southeast 255 293 3,500 -840 Descending FlightAware
02:21AM -34.2060 151.1890 81° East 235 270 3,200 -720 Descending FlightAware
02:21AM -34.1980 151.1980 43° Northeast 228 262 3,100 -600 Descending FlightAware
02:21AM -34.1790 151.2060 19° North 214 246 2,900 -600 Descending FlightAware
02:22AM -34.1690 151.2090 14° North 213 245 2,800 -480 Descending FlightAware
02:22AM -34.1410 151.2170 13° North 201 231 2,600 -360 Descending FlightAware
02:23AM -34.1060 151.2180 North 189 217 2,400 -540 Descending FlightAware
02:23AM -34.0850 151.2120 347° North 185 213 2,000 -1,020 Descending FlightAware
02:24AM -34.0600 151.2060 349° North 180 207 1,500 -1,020 Descending FlightAware
02:24AM -34.0440 151.2010 345° North 166 191 1,200 -840 Descending FlightAware
02:25AM -34.0230 151.1960 349° North 147 169 800 -780 Descending FlightAware
02:25AM -34.0070 151.1920 348° North 145 167 500 -720 Descending FlightAware
02:25AM -33.9900 151.1870 346° North 148 170 200 -720 Descending FlightAware
02:26AM -33.9850 151.1860 351° North 149 171 100 3,720 Descending FlightAware
02:26AM -33.9620 151.1800 348° North 149 171 3,780 Descending FlightAware
02:27AM -33.9490 151.1770 349° North 42 48 4,020 Level FlightAware
02:27AM -33.9440 151.1770 360° North 27 31 4,260 Level FlightAware
02:28AM -33.9410 151.1770 360° North 29 33 4,560 Level FlightAware
02:28AM -33.9390 151.1760 337° Northwest 30 35 4,740 Level FlightAware
02:28AM -33.9360 151.1750 345° North 22 25 4,920 Level FlightAware
02:29AM -33.9330 151.1750 360° North 19 22 5,340 Level FlightAware
02:29AM -33.9300 151.1740 345° North 16 18 5,760 Level FlightAware
02:30AM -33.9300 151.1760 90° East 11 13 6,240 Level FlightAware
02:30AM -33.9310 151.1770 140° Southeast 7 8 6,900 Level FlightAware
02:34AM -24.0101 134.1895 128° Southeast  Level Estimated
02:35AM -24.0763 134.2834 128° Southeast  Level Estimated
02:35AM -31.8770 145.9841 127° Southeast 503 579 37,300  Level Aus ATC (RADAR)
02:35AM -31.8770 145.9841 124° Southeast 503 579 37,300  Level Aus ATC (RADAR)
02:36AM -24.1424 134.3774 128° Southeast  Level Estimated
02:37AM -24.2085 134.4715 128° Southeast  Level Estimated
02:37AM -31.9489 146.1091 124° Southeast  Level FlightAware Approximate
02:38AM -24.2745 134.5657 128° Southeast  Level Estimated
02:38AM -31.9913 146.2516 117° Southeast  Level Estimated
02:39AM -24.3405 134.6600 128° Southeast  Level Estimated
02:40AM -24.4065 134.7544 128° Southeast  Level Estimated
02:41AM -24.4723 134.8488 127° Southeast  Level Estimated
02:42AM -24.5381 134.9434 127° Southeast  Level Estimated
02:45AM -32.3538 147.1139 117° Southeast  Level Estimated
02:46AM -32.4051 147.2376 116° Southeast  Level Estimated
02:47AM -32.4563 147.3615 116° Southeast  Level Estimated
02:48AM -32.5074 147.4855 116° Southeast  Level Estimated
02:48AM -33.2356 148.3237 116° Southeast 462 532 37,400  Level Aus ATC (RADAR)
02:52AM -34.5020 149.7017 138° Southeast 372 428 25,600 -2,760 Descending Aus ATC (RADAR)
02:54AM -34.5019 149.9112 90° East  Level FlightAware Approximate
03:00AM -34.2049 151.1915 90° East 237 273 3,600  Level Aus ATC (RADAR)
03:01AM -34.1442 151.2163 351° North 211 243 3,000 -720 Descending Aus ATC (RADAR)
03:01AM -34.1442 151.2164 19° North 211 243 3,000  Level Aus ATC (RADAR)
03:03AM -33.9461 151.1772 351° North  Level Estimated